Grande Italia — IBTF — position and weather

sailwx.info

Track history (hours):
 
Tides and Currents Weather Stations Pressure Air Temp Water Temp Dewpoint Dewpoint Depression Visibility Wind Speed Wind Dir Waves Ship Positions

Grande Italia

Last reported at 2016-Sep-25 10:31 UTC. Time now 2016-Sep-27 15:38 UTC.
Position N 40°27' E 029°03'.

Length 177 m; draft 8.3 m.

Type: Cargo ship. MMSI: 247039300.

Date/timePositionNaut miles runAvg speedWind from/ knotsBaromVisibWave heightAir tempDewpointWater temp
2016-Sep-25 10:31N 40°27' E 029°03'17 5.7
2016-Sep-25 07:33N 40°43' E 029°10'26 2.9
2016-Sep-24 22:32N 40°44' E 029°45'1313.1
2016-Sep-24 21:33N 40°44' E 029°28'  
2016-Sep-22 12:31N 32°49' E 035°00'0 0.0
2016-Sep-22 04:31N 32°49' E 035°00'0 0.0
2016-Sep-22 03:31N 32°49' E 035°00'0 0.0
2016-Sep-22 00:31N 32°49' E 035°00'0 0.0
2016-Sep-21 23:31N 32°49' E 035°00'0 0.0
2016-Sep-21 22:31N 32°49' E 035°00'0 0.0
2016-Sep-21 19:31N 32°49' E 035°00'0 0.0
2016-Sep-21 16:31N 32°49' E 035°00'69 8.5
2016-Sep-21 08:27N 32°56' E 033°39'5418.4
2016-Sep-21 05:32N 32°36' E 032°39'3618.1
2016-Sep-21 03:33N 32°23' E 031°60'1817.3
2016-Sep-21 02:32N 32°17' E 031°40'181 9.3
2016-Sep-20 07:06N 32°19' E 028°06'  
2016-Sep-18 02:27N 43°54' E 014°14'1718.9
2016-Sep-18 01:33N 44°07' E 014°01'1918.6
2016-Sep-18 00:33N 44°23' E 013°46'3818.8
2016-Sep-17 22:33N 44°54' E 013°18'1818.1
2016-Sep-17 21:33N 45°10' E 013°04'1616.1
2016-Sep-17 20:33N 45°26' E 013°07'2217.1
2016-Sep-17 19:16N 45°38' E 013°34'8 1.5
2016-Sep-17 13:32N 45°34' E 013°44'0 0.0
2016-Sep-17 12:23N 45°34' E 013°44'0 0.0
2016-Sep-17 10:32N 45°34' E 013°44'0 0.0
2016-Sep-17 09:32N 45°34' E 013°44'0 0.0
2016-Sep-17 08:29N 45°34' E 013°44'0 0.0
2016-Sep-17 07:29N 45°34' E 013°44'0 0.0
2016-Sep-17 05:32N 45°34' E 013°44'0 0.0
2016-Sep-17 04:32N 45°34' E 013°44'0 0.0
2016-Sep-17 00:32N 45°34' E 013°44'16 2.3
2016-Sep-16 17:33N 45°47' E 013°33'0 0.1
2016-Sep-16 15:32N 45°47' E 013°33'0 0.0
2016-Sep-16 12:32N 45°47' E 013°33'0 0.0
2016-Sep-16 09:31N 45°47' E 013°33'0 0.0
2016-Sep-16 07:29N 45°47' E 013°33'0 0.0
2016-Sep-16 03:31N 45°47' E 013°33'0 0.0
2016-Sep-16 02:29N 45°47' E 013°33'0 0.0
2016-Sep-16 00:32N 45°47' E 013°33'0 0.0
2016-Sep-15 22:31N 45°47' E 013°33'0 0.0
2016-Sep-15 21:32N 45°47' E 013°33'0 0.0
2016-Sep-15 20:25N 45°47' E 013°33'0 0.0
2016-Sep-15 18:28N 45°47' E 013°33'0 0.0
2016-Sep-15 12:31N 45°47' E 013°33'0 0.0
2016-Sep-15 11:23N 45°47' E 013°33'  
Track history (hours):
 
Tides and Currents Weather Stations Pressure Air Temp Water Temp Dewpoint Dewpoint Depression Visibility Wind Speed Wind Dir Waves Ship Positions

Grande Italia

Last reported at 2016-Sep-25 10:31 UTC. Time now 2016-Sep-27 15:38 UTC.
Position N 40°27' E 029°03'.

Length 177 m; draft 8.3 m.

Type: Cargo ship. MMSI: 247039300.

Date/timePositionNaut miles runAvg speedWind from/ knotsBaromVisibWave heightAir tempDewpointWater temp
2016-Sep-25 10:31N 40°27' E 029°03'17 5.7
2016-Sep-25 07:33N 40°43' E 029°10'26 2.9
2016-Sep-24 22:32N 40°44' E 029°45'1313.1
2016-Sep-24 21:33N 40°44' E 029°28'  
2016-Sep-22 12:31N 32°49' E 035°00'0 0.0
2016-Sep-22 04:31N 32°49' E 035°00'0 0.0
2016-Sep-22 03:31N 32°49' E 035°00'0 0.0
2016-Sep-22 00:31N 32°49' E 035°00'0 0.0
2016-Sep-21 23:31N 32°49' E 035°00'0 0.0
2016-Sep-21 22:31N 32°49' E 035°00'0 0.0
2016-Sep-21 19:31N 32°49' E 035°00'0 0.0
2016-Sep-21 16:31N 32°49' E 035°00'69 8.5
2016-Sep-21 08:27N 32°56' E 033°39'5418.4
2016-Sep-21 05:32N 32°36' E 032°39'3618.1
2016-Sep-21 03:33N 32°23' E 031°60'1817.3
2016-Sep-21 02:32N 32°17' E 031°40'181 9.3
2016-Sep-20 07:06N 32°19' E 028°06'  
2016-Sep-18 02:27N 43°54' E 014°14'1718.9
2016-Sep-18 01:33N 44°07' E 014°01'1918.6
2016-Sep-18 00:33N 44°23' E 013°46'3818.8
2016-Sep-17 22:33N 44°54' E 013°18'1818.1
2016-Sep-17 21:33N 45°10' E 013°04'1616.1
2016-Sep-17 20:33N 45°26' E 013°07'2217.1
2016-Sep-17 19:16N 45°38' E 013°34'8 1.5
2016-Sep-17 13:32N 45°34' E 013°44'0 0.0
2016-Sep-17 12:23N 45°34' E 013°44'0 0.0
2016-Sep-17 10:32N 45°34' E 013°44'0 0.0
2016-Sep-17 09:32N 45°34' E 013°44'0 0.0
2016-Sep-17 08:29N 45°34' E 013°44'0 0.0
2016-Sep-17 07:29N 45°34' E 013°44'0 0.0
2016-Sep-17 05:32N 45°34' E 013°44'0 0.0
2016-Sep-17 04:32N 45°34' E 013°44'0 0.0
2016-Sep-17 00:32N 45°34' E 013°44'16 2.3
2016-Sep-16 17:33N 45°47' E 013°33'0 0.1
2016-Sep-16 15:32N 45°47' E 013°33'0 0.0
2016-Sep-16 12:32N 45°47' E 013°33'0 0.0
2016-Sep-16 09:31N 45°47' E 013°33'0 0.0
2016-Sep-16 07:29N 45°47' E 013°33'0 0.0
2016-Sep-16 03:31N 45°47' E 013°33'0 0.0
2016-Sep-16 02:29N 45°47' E 013°33'0 0.0
2016-Sep-16 00:32N 45°47' E 013°33'0 0.0
2016-Sep-15 22:31N 45°47' E 013°33'0 0.0
2016-Sep-15 21:32N 45°47' E 013°33'0 0.0
2016-Sep-15 20:25N 45°47' E 013°33'0 0.0
2016-Sep-15 18:28N 45°47' E 013°33'0 0.0
2016-Sep-15 12:31N 45°47' E 013°33'0 0.0
2016-Sep-15 11:23N 45°47' E 013°33'  

Dump ship's entire track history